BEE231A EGFF-EGJJ
Flight info
| Callsign | BEE231A |
|---|---|
| Flight time | 0h 36m |
| Altitude | 15000 |
| Route | EXMOR N92 DAWLY N864 ABBEW N90 ENHEL N862 SKERY |
| Aircraft | SF34/M-SDFGR/S |
Departure
| Time | 2026-05-08 19:28 |
|---|---|
| Airport | Cardiff International Airport (EGFF) |
Arrival
| Time | 2026-05-08 20:04 |
|---|---|
| Airport | Jersey Airport (EGJJ) |
| Time | Latitude | Longitude | Altitude | Speed | Heading |
|---|---|---|---|---|---|
| 2026-05-08 19:19 | 51.39873 | -3.34179 | 219 ft | 0 kts | 117° |
| 2026-05-08 19:22 | 51.39883 | -3.34206 | 219 ft | 4 kts | 128° |
| 2026-05-08 19:23 | 51.39902 | -3.34234 | 219 ft | 4 kts | 159° |
| 2026-05-08 19:23 | 51.39922 | -3.34237 | 219 ft | 1 kts | 206° |
| 2026-05-08 19:23 | 51.39922 | -3.34236 | 219 ft | 0 kts | 206° |
| 2026-05-08 19:26 | 51.39897 | -3.34257 | 219 ft | 13 kts | 207° |
| 2026-05-08 19:26 | 51.39875 | -3.34274 | 220 ft | 0 kts | 205° |
| 2026-05-08 19:26 | 51.39826 | -3.34267 | 221 ft | 12 kts | 115° |
| 2026-05-08 19:27 | 51.39761 | -3.34057 | 217 ft | 30 kts | 115° |
| 2026-05-08 19:27 | 51.39682 | -3.33812 | 214 ft | 19 kts | 126° |
| 2026-05-08 19:27 | 51.39626 | -3.33828 | 214 ft | 17 kts | 255° |
| 2026-05-08 19:27 | 51.39572 | -3.34041 | 215 ft | 9 kts | 272° |
| 2026-05-08 19:28 | 51.39575 | -3.34058 | 215 ft | 0 kts | 293° |
| 2026-05-08 19:28 | 51.39706 | -3.34471 | 218 ft | 84 kts | 296° |
| 2026-05-08 19:28 | 51.40083 | -3.35645 | 326 ft | 146 kts | 298° |
| 2026-05-08 19:28 | 51.40594 | -3.37232 | 1061 ft | 160 kts | 296° |
| 2026-05-08 19:29 | 51.40885 | -3.38278 | 1990 ft | 145 kts | 292° |
| 2026-05-08 19:29 | 51.41259 | -3.39636 | 3150 ft | 136 kts | 294° |
| 2026-05-08 19:29 | 51.41712 | -3.41112 | 3883 ft | 154 kts | 294° |
| 2026-05-08 19:29 | 51.42336 | -3.43168 | 5218 ft | 155 kts | 294° |
| 2026-05-08 19:30 | 51.42649 | -3.44196 | 5870 ft | 155 kts | 293° |
| 2026-05-08 19:30 | 51.43111 | -3.45759 | 6834 ft | 156 kts | 287° |
| 2026-05-08 19:30 | 51.43211 | -3.48015 | 8048 ft | 154 kts | 258° |
| 2026-05-08 19:30 | 51.43023 | -3.49124 | 8693 ft | 152 kts | 244° |
| 2026-05-08 19:31 | 51.42479 | -3.50565 | 9669 ft | 151 kts | 225° |
| 2026-05-08 19:31 | 51.41674 | -3.51628 | 10591 ft | 150 kts | 207° |
| 2026-05-08 19:31 | 51.40694 | -3.52208 | 11498 ft | 152 kts | 190° |
| 2026-05-08 19:31 | 51.39649 | -3.52239 | 12408 ft | 155 kts | 173° |
| 2026-05-08 19:32 | 51.38617 | -3.51684 | 13334 ft | 160 kts | 154° |
| 2026-05-08 19:32 | 51.37736 | -3.50541 | 14216 ft | 168 kts | 134° |
| 2026-05-08 19:32 | 51.37030 | -3.48952 | 14846 ft | 187 kts | 132° |
| 2026-05-08 19:32 | 51.36113 | -3.47155 | 15008 ft | 229 kts | 132° |
| 2026-05-08 19:33 | 51.35080 | -3.44933 | 15040 ft | 266 kts | 128° |
| 2026-05-08 19:33 | 51.33939 | -3.42441 | 15080 ft | 288 kts | 130° |
| 2026-05-08 19:33 | 51.32684 | -3.39844 | 15116 ft | 301 kts | 130° |
| 2026-05-08 19:33 | 51.31428 | -3.37176 | 15153 ft | 305 kts | 131° |
| 2026-05-08 19:34 | 51.29792 | -3.35069 | 15174 ft | 304 kts | 156° |
| 2026-05-08 19:34 | 51.27761 | -3.34292 | 15188 ft | 301 kts | 181° |
| 2026-05-08 19:34 | 51.25713 | -3.34836 | 15209 ft | 298 kts | 195° |
| 2026-05-08 19:34 | 51.23668 | -3.35442 | 15226 ft | 301 kts | 187° |
| 2026-05-08 19:35 | 51.21574 | -3.35591 | 15240 ft | 302 kts | 183° |
| 2026-05-08 19:35 | 51.19474 | -3.35710 | 15254 ft | 302 kts | 186° |
| 2026-05-08 19:35 | 51.17384 | -3.36027 | 15260 ft | 302 kts | 188° |
| 2026-05-08 19:35 | 51.15317 | -3.36323 | 15262 ft | 302 kts | 185° |
| 2026-05-08 19:36 | 51.13222 | -3.36525 | 15270 ft | 302 kts | 186° |
| 2026-05-08 19:36 | 51.11134 | -3.36913 | 15282 ft | 302 kts | 189° |
| 2026-05-08 19:36 | 51.09047 | -3.37139 | 15282 ft | 303 kts | 176° |
| 2026-05-08 19:36 | 51.06970 | -3.36570 | 15293 ft | 303 kts | 173° |
| 2026-05-08 19:37 | 51.04872 | -3.36197 | 15303 ft | 303 kts | 177° |
| 2026-05-08 19:37 | 51.02767 | -3.35909 | 15310 ft | 304 kts | 176° |
| 2026-05-08 19:37 | 51.00665 | -3.35478 | 15311 ft | 305 kts | 174° |
| 2026-05-08 19:37 | 50.98561 | -3.35065 | 15308 ft | 304 kts | 176° |
| 2026-05-08 19:38 | 50.96459 | -3.34678 | 15311 ft | 304 kts | 175° |
| 2026-05-08 19:38 | 50.94381 | -3.34301 | 15312 ft | 305 kts | 175° |
| 2026-05-08 19:38 | 50.92278 | -3.33915 | 15443 ft | 299 kts | 175° |
| 2026-05-08 19:38 | 50.90253 | -3.33540 | 15948 ft | 291 kts | 176° |
| 2026-05-08 19:39 | 50.88233 | -3.33177 | 16138 ft | 293 kts | 176° |
| 2026-05-08 19:39 | 50.86206 | -3.32800 | 16358 ft | 294 kts | 176° |
| 2026-05-08 19:39 | 50.84168 | -3.32430 | 16556 ft | 295 kts | 176° |
| 2026-05-08 19:39 | 50.82122 | -3.32054 | 16723 ft | 296 kts | 176° |
| 2026-05-08 19:40 | 50.80072 | -3.31681 | 16890 ft | 297 kts | 176° |
| 2026-05-08 19:40 | 50.78007 | -3.31304 | 16949 ft | 300 kts | 176° |
| 2026-05-08 19:40 | 50.75946 | -3.30928 | 16971 ft | 303 kts | 176° |
| 2026-05-08 19:40 | 50.73853 | -3.30547 | 16992 ft | 304 kts | 176° |
| 2026-05-08 19:41 | 50.71749 | -3.30163 | 16990 ft | 305 kts | 176° |
| 2026-05-08 19:41 | 50.69640 | -3.29779 | 16991 ft | 305 kts | 176° |
| 2026-05-08 19:41 | 50.67545 | -3.29240 | 16989 ft | 307 kts | 167° |
| 2026-05-08 19:41 | 50.65558 | -3.27957 | 16987 ft | 311 kts | 154° |
| 2026-05-08 19:42 | 50.63703 | -3.26200 | 16991 ft | 312 kts | 150° |
| 2026-05-08 19:42 | 50.61868 | -3.24361 | 16986 ft | 313 kts | 150° |
| 2026-05-08 19:42 | 50.60023 | -3.22546 | 16981 ft | 313 kts | 151° |
| 2026-05-08 19:42 | 50.58164 | -3.20784 | 16986 ft | 313 kts | 152° |
| 2026-05-08 19:43 | 50.56276 | -3.19073 | 16983 ft | 312 kts | 153° |
| 2026-05-08 19:43 | 50.54402 | -3.17455 | 16983 ft | 312 kts | 155° |
| 2026-05-08 19:43 | 50.52478 | -3.15878 | 16982 ft | 312 kts | 156° |
| 2026-05-08 19:43 | 50.50535 | -3.14372 | 16988 ft | 311 kts | 157° |
| 2026-05-08 19:44 | 50.48572 | -3.12939 | 16994 ft | 311 kts | 159° |
| 2026-05-08 19:44 | 50.46590 | -3.11583 | 16992 ft | 311 kts | 160° |
| 2026-05-08 19:44 | 50.44591 | -3.10307 | 16991 ft | 310 kts | 161° |
| 2026-05-08 19:44 | 50.42573 | -3.09112 | 16990 ft | 310 kts | 163° |
| 2026-05-08 19:45 | 50.40538 | -3.08005 | 16985 ft | 309 kts | 164° |
| 2026-05-08 19:45 | 50.38515 | -3.07001 | 16990 ft | 309 kts | 166° |
| 2026-05-08 19:45 | 50.36449 | -3.06078 | 16981 ft | 308 kts | 167° |
| 2026-05-08 19:45 | 50.34370 | -3.05254 | 16976 ft | 308 kts | 169° |
| 2026-05-08 19:46 | 50.32278 | -3.04535 | 16977 ft | 308 kts | 171° |
| 2026-05-08 19:46 | 50.30175 | -3.03925 | 16977 ft | 307 kts | 173° |
| 2026-05-08 19:46 | 50.25947 | -3.03057 | 16971 ft | 306 kts | 177° |
| 2026-05-08 19:47 | 50.23825 | -3.02812 | 16971 ft | 306 kts | 179° |
| 2026-05-08 19:47 | 50.21702 | -3.02667 | 16971 ft | 305 kts | 179° |
| 2026-05-08 19:47 | 50.19609 | -3.02497 | 16966 ft | 305 kts | 179° |
| 2026-05-08 19:47 | 50.17484 | -3.02313 | 16966 ft | 306 kts | 179° |
| 2026-05-08 19:48 | 50.15365 | -3.02127 | 16969 ft | 306 kts | 179° |
| 2026-05-08 19:48 | 50.13243 | -3.01943 | 16969 ft | 305 kts | 179° |
| 2026-05-08 19:48 | 50.11120 | -3.01761 | 16969 ft | 306 kts | 179° |
| 2026-05-08 19:48 | 50.08996 | -3.01579 | 16967 ft | 306 kts | 179° |
| 2026-05-08 19:49 | 50.06874 | -3.01396 | 16967 ft | 305 kts | 179° |
| 2026-05-08 19:49 | 50.04774 | -3.00900 | 16967 ft | 307 kts | 169° |
| 2026-05-08 19:49 | 50.02715 | -3.00013 | 16964 ft | 308 kts | 166° |
| 2026-05-08 19:49 | 50.00666 | -2.99039 | 16961 ft | 308 kts | 165° |
| 2026-05-08 19:50 | 49.98618 | -2.98044 | 16964 ft | 308 kts | 165° |
| 2026-05-08 19:50 | 49.96598 | -2.97058 | 16973 ft | 309 kts | 165° |
| 2026-05-08 19:50 | 49.94549 | -2.96058 | 16969 ft | 309 kts | 165° |
| 2026-05-08 19:50 | 49.92500 | -2.95059 | 16962 ft | 308 kts | 165° |
| 2026-05-08 19:51 | 49.90450 | -2.94068 | 16962 ft | 308 kts | 165° |
| 2026-05-08 19:51 | 49.88399 | -2.93085 | 16957 ft | 309 kts | 165° |
| 2026-05-08 19:51 | 49.86354 | -2.92101 | 16962 ft | 308 kts | 165° |
| 2026-05-08 19:51 | 49.84300 | -2.91106 | 16854 ft | 310 kts | 165° |
| 2026-05-08 19:52 | 49.82203 | -2.90088 | 16341 ft | 320 kts | 165° |
| 2026-05-08 19:52 | 49.80087 | -2.89073 | 15845 ft | 325 kts | 165° |
| 2026-05-08 19:52 | 49.77922 | -2.88041 | 15349 ft | 326 kts | 165° |
| 2026-05-08 19:52 | 49.75756 | -2.86999 | 14860 ft | 326 kts | 165° |
| 2026-05-08 19:53 | 49.73592 | -2.85959 | 14340 ft | 326 kts | 165° |
| 2026-05-08 19:53 | 49.71425 | -2.84920 | 13734 ft | 325 kts | 165° |
| 2026-05-08 19:53 | 49.69270 | -2.83902 | 13071 ft | 323 kts | 165° |
| 2026-05-08 19:53 | 49.67129 | -2.82922 | 12419 ft | 319 kts | 165° |
| 2026-05-08 19:54 | 49.65019 | -2.81960 | 11772 ft | 315 kts | 165° |
| 2026-05-08 19:54 | 49.62956 | -2.81040 | 11149 ft | 309 kts | 165° |
| 2026-05-08 19:54 | 49.60880 | -2.80120 | 10525 ft | 305 kts | 165° |
| 2026-05-08 19:54 | 49.58875 | -2.79252 | 9926 ft | 302 kts | 165° |
| 2026-05-08 19:55 | 49.56866 | -2.78394 | 9271 ft | 296 kts | 165° |
| 2026-05-08 19:55 | 49.54890 | -2.77557 | 8619 ft | 293 kts | 165° |
| 2026-05-08 19:55 | 49.52925 | -2.76733 | 7980 ft | 292 kts | 165° |
| 2026-05-08 19:55 | 49.50971 | -2.75926 | 7353 ft | 289 kts | 165° |
| 2026-05-08 19:56 | 49.49051 | -2.75148 | 7020 ft | 279 kts | 165° |
| 2026-05-08 19:56 | 49.47208 | -2.74410 | 6948 ft | 270 kts | 164° |
| 2026-05-08 19:56 | 49.45475 | -2.73377 | 6867 ft | 266 kts | 151° |
| 2026-05-08 19:56 | 49.43899 | -2.71842 | 6539 ft | 272 kts | 146° |
| 2026-05-08 19:57 | 49.42339 | -2.70186 | 6194 ft | 272 kts | 145° |
| 2026-05-08 19:57 | 49.40815 | -2.68544 | 5897 ft | 270 kts | 145° |
| 2026-05-08 19:57 | 49.39285 | -2.66896 | 5630 ft | 267 kts | 145° |
| 2026-05-08 19:57 | 49.37770 | -2.65266 | 5379 ft | 266 kts | 145° |
| 2026-05-08 19:58 | 49.36253 | -2.63638 | 5126 ft | 265 kts | 145° |
| 2026-05-08 19:58 | 49.34753 | -2.62032 | 4881 ft | 263 kts | 145° |
| 2026-05-08 19:58 | 49.33246 | -2.60428 | 4621 ft | 263 kts | 145° |
| 2026-05-08 19:58 | 49.31743 | -2.58838 | 4363 ft | 262 kts | 145° |
| 2026-05-08 19:59 | 49.30238 | -2.57255 | 4109 ft | 262 kts | 145° |
| 2026-05-08 19:59 | 49.28741 | -2.55685 | 3854 ft | 260 kts | 145° |
| 2026-05-08 19:59 | 49.27251 | -2.54121 | 3599 ft | 259 kts | 144° |
| 2026-05-08 19:59 | 49.25767 | -2.52585 | 3360 ft | 257 kts | 145° |
| 2026-05-08 20:00 | 49.24298 | -2.51083 | 3113 ft | 257 kts | 145° |
| 2026-05-08 20:00 | 49.22832 | -2.49583 | 2845 ft | 248 kts | 144° |
| 2026-05-08 20:00 | 49.21406 | -2.48144 | 2590 ft | 244 kts | 144° |
| 2026-05-08 20:00 | 49.20111 | -2.46533 | 2333 ft | 239 kts | 127° |
| 2026-05-08 20:01 | 49.19412 | -2.44262 | 2106 ft | 236 kts | 105° |
| 2026-05-08 20:01 | 49.19091 | -2.41825 | 2031 ft | 233 kts | 100° |
| 2026-05-08 20:01 | 49.19061 | -2.39375 | 2002 ft | 230 kts | 87° |
| 2026-05-08 20:01 | 49.19307 | -2.36953 | 2001 ft | 232 kts | 81° |
| 2026-05-08 20:02 | 49.19623 | -2.34532 | 2000 ft | 232 kts | 80° |
| 2026-05-08 20:02 | 49.19896 | -2.32239 | 1895 ft | 207 kts | 84° |
| 2026-05-08 20:02 | 49.20055 | -2.30087 | 1573 ft | 192 kts | 85° |
| 2026-05-08 20:02 | 49.20139 | -2.28390 | 1351 ft | 143 kts | 86° |
| 2026-05-08 20:03 | 49.20198 | -2.26950 | 1161 ft | 129 kts | 86° |
| 2026-05-08 20:03 | 49.20276 | -2.25663 | 1054 ft | 119 kts | 84° |
| 2026-05-08 20:03 | 49.20425 | -2.24405 | 882 ft | 120 kts | 83° |
| 2026-05-08 20:03 | 49.20491 | -2.23151 | 718 ft | 118 kts | 84° |
| 2026-05-08 20:04 | 49.20592 | -2.21961 | 502 ft | 100 kts | 82° |
| 2026-05-08 20:04 | 49.20682 | -2.20915 | 348 ft | 98 kts | 81° |
| 2026-05-08 20:04 | 49.20766 | -2.19931 | 281 ft | 80 kts | 82° |
| 2026-05-08 20:04 | 49.20808 | -2.19418 | 282 ft | 22 kts | 84° |
| 2026-05-08 20:05 | 49.20809 | -2.19130 | 280 ft | 32 kts | 100° |
| 2026-05-08 20:05 | 49.20762 | -2.18910 | 280 ft | 16 kts | 112° |
| 2026-05-08 20:05 | 49.20700 | -2.18922 | 280 ft | 20 kts | 261° |
| 2026-05-08 20:05 | 49.20681 | -2.19194 | 280 ft | 27 kts | 274° |
| 2026-05-08 20:06 | 49.20709 | -2.19440 | 280 ft | 19 kts | 263° |
| 2026-05-08 20:06 | 49.20663 | -2.19651 | 280 ft | 20 kts | 215° |
| 2026-05-08 20:06 | 49.20606 | -2.19861 | 280 ft | 20 kts | 263° |
| 2026-05-08 20:06 | 49.20501 | -2.19926 | 280 ft | 21 kts | 175° |
| 2026-05-08 20:07 | 49.20432 | -2.19852 | 280 ft | 9 kts | 82° |
| 2026-05-08 20:07 | 49.20448 | -2.19782 | 280 ft | 5 kts | 356° |
| 2026-05-08 20:07 | 49.20487 | -2.19790 | 280 ft | 0 kts | 353° |
| 2026-05-08 20:07 | 49.20494 | -2.19792 | 280 ft | 0 kts | 352° |